You are listening to:
YBBN Gnd/Twr/App/Dep - Brisbane, Queensland, Australia

YBBN 020200Z 13008KT 9999 SCT030 SCT043 BKN250 30/22 Q1000 RF00/0/000/2

If stream doesn't start automatically press the play button
If stream stops then reload player then press play